Time;durP1;ratioP1;P1;durP2;ratioP2;P2;SDS_P1;SDS_P2;PMS_P1;PMS_P2;Temp;Humidity;BMP_temperature;BMP_pressure;BME280_temperature;BME280_humidity;BME280_pressure;Samples;Min_cycle;Max_cycle;Signal;HPM_P1;HPM_P2
2021/09/28 00:00:14;;;;;;;10.77;8.38;;;;;;;;;;5054645;28;20033;-54
2021/09/28 00:02:40;;;;;;;24.60;16.33;;;;;;;;;;5054519;28;20411;-53
2021/09/28 00:05:12;;;;;;;14.63;10.65;;;;;;;;;;5054409;28;20031;-54
2021/09/28 00:07:38;;;;;;;21.02;14.60;;;;;;;;;;5053494;28;20037;-54
2021/09/28 00:10:05;;;;;;;26.65;17.33;;;;;;;;;;5054460;28;20087;-54
2021/09/28 00:12:31;;;;;;;17.67;10.80;;;;;;;;;;5054416;28;20036;-54
2021/09/28 00:14:57;;;;;;;17.88;11.85;;;;;;;;;;5054061;28;20041;-54
2021/09/28 00:17:23;;;;;;;12.48;9.13;;;;;;;;;;5054171;28;20056;-54
2021/09/28 00:19:50;;;;;;;15.85;7.93;;;;;;;;;;5054169;28;20021;-53
2021/09/28 00:22:16;;;;;;;13.90;9.02;;;;;;;;;;5054274;28;20489;-53
2021/09/28 00:24:42;;;;;;;11.90;8.02;;;;;;;;;;5053954;28;20049;-54
2021/09/28 00:27:08;;;;;;;13.95;8.88;;;;;;;;;;5054042;28;20028;-56
2021/09/28 00:29:36;;;;;;;21.75;13.38;;;;;;;;;;5054009;28;20032;-55
2021/09/28 00:32:02;;;;;;;22.20;12.63;;;;;;;;;;5053960;28;20025;-55
2021/09/28 00:34:28;;;;;;;20.67;14.48;;;;;;;;;;5053762;28;20040;-54
2021/09/28 00:36:54;;;;;;;16.20;11.13;;;;;;;;;;5053976;28;20036;-55
2021/09/28 00:39:20;;;;;;;14.77;9.60;;;;;;;;;;5053928;28;20025;-54
2021/09/28 00:41:46;;;;;;;20.00;11.10;;;;;;;;;;5053909;28;20017;-55
2021/09/28 00:44:13;;;;;;;14.77;10.18;;;;;;;;;;5052962;28;20040;-55
2021/09/28 00:46:39;;;;;;;17.48;9.68;;;;;;;;;;5053911;28;20036;-55
2021/09/28 00:49:05;;;;;;;14.15;8.23;;;;;;;;;;5053731;28;20108;-55
2021/09/28 00:51:31;;;;;;;11.70;7.82;;;;;;;;;;5053628;28;20021;-55
2021/09/28 00:53:58;;;;;;;36.63;19.90;;;;;;;;;;5053753;28;20437;-54
2021/09/28 00:56:24;;;;;;;15.00;9.23;;;;;;;;;;5053586;28;20025;-55
2021/09/28 00:58:51;;;;;;;19.02;12.85;;;;;;;;;;5053503;28;20029;-55
2021/09/28 01:01:20;;;;;;;35.55;25.42;;;;;;;;;;5053577;28;20057;-55
2021/09/28 01:03:46;;;;;;;32.85;19.40;;;;;;;;;;5053506;28;20025;-56
2021/09/28 01:06:12;;;;;;;35.50;21.95;;;;;;;;;;5053304;28;20025;-56
2021/09/28 01:08:38;;;;;;;23.15;16.10;;;;;;;;;;5053422;28;20478;-54
2021/09/28 01:11:04;;;;;;;16.70;11.73;;;;;;;;;;5053426;28;20071;-56
2021/09/28 01:13:33;;;;;;;18.15;13.13;;;;;;;;;;5053202;28;20106;-54
2021/09/28 01:15:59;;;;;;;19.02;12.23;;;;;;;;;;5053491;28;20040;-55
2021/09/28 01:18:25;;;;;;;17.67;11.75;;;;;;;;;;5053351;28;20021;-55
2021/09/28 01:20:52;;;;;;;13.57;8.43;;;;;;;;;;5053379;28;20389;-56
2021/09/28 01:23:18;;;;;;;8.73;6.93;;;;;;;;;;5053296;28;20104;-55
2021/09/28 01:25:47;;;;;;;11.00;7.90;;;;;;;;;;5052678;28;20400;-54
2021/09/28 01:28:13;;;;;;;10.00;7.47;;;;;;;;;;5053277;28;20032;-59
2021/09/28 01:30:39;;;;;;;10.15;7.75;;;;;;;;;;5053376;28;20056;-58
2021/09/28 01:33:05;;;;;;;17.55;9.80;;;;;;;;;;5053238;28;20044;-58
2021/09/28 01:35:31;;;;;;;12.40;8.45;;;;;;;;;;5053058;28;20044;-58
2021/09/28 01:37:58;;;;;;;27.17;15.07;;;;;;;;;;5053556;28;20025;-58
2021/09/28 01:40:24;;;;;;;27.08;16.85;;;;;;;;;;5053137;28;20079;-60
2021/09/28 01:42:50;;;;;;;38.22;20.65;;;;;;;;;;5053156;28;20023;-61
2021/09/28 01:45:17;;;;;;;23.92;15.45;;;;;;;;;;5053214;28;20021;-60
2021/09/28 01:47:43;;;;;;;45.70;28.50;;;;;;;;;;5052937;28;20087;-58
2021/09/28 01:50:10;;;;;;;24.38;14.15;;;;;;;;;;5053081;28;20025;-60
2021/09/28 01:52:37;;;;;;;34.70;23.67;;;;;;;;;;5053219;28;20036;-60
2021/09/28 01:55:04;;;;;;;31.15;19.75;;;;;;;;;;5052648;28;20159;-61
2021/09/28 01:57:30;;;;;;;28.25;18.23;;;;;;;;;;5052975;28;20036;-60
2021/09/28 01:59:56;;;;;;;15.13;11.20;;;;;;;;;;5053003;28;20025;-64
2021/09/28 02:02:22;;;;;;;13.55;9.70;;;;;;;;;;5052916;28;20053;-60
2021/09/28 02:04:48;;;;;;;15.43;9.90;;;;;;;;;;5052986;28;20024;-61
2021/09/28 02:07:14;;;;;;;16.38;11.23;;;;;;;;;;5052758;28;20033;-59
2021/09/28 02:09:40;;;;;;;23.50;14.63;;;;;;;;;;5052870;28;20025;-57
2021/09/28 02:12:06;;;;;;;12.43;8.90;;;;;;;;;;5052843;28;20461;-62
2021/09/28 02:14:32;;;;;;;15.02;10.38;;;;;;;;;;5053007;28;20037;-61
2021/09/28 02:16:59;;;;;;;12.52;9.25;;;;;;;;;;5052795;28;20021;-59
2021/09/28 02:19:25;;;;;;;14.18;7.97;;;;;;;;;;5052677;28;20025;-60
2021/09/28 02:21:51;;;;;;;9.55;8.02;;;;;;;;;;5052598;28;20048;-60
2021/09/28 02:24:17;;;;;;;10.38;8.10;;;;;;;;;;5052888;28;20489;-61
2021/09/28 02:26:44;;;;;;;12.07;8.75;;;;;;;;;;5052714;28;20033;-61
2021/09/28 02:29:10;;;;;;;12.23;8.05;;;;;;;;;;5052820;28;20614;-62
2021/09/28 02:31:36;;;;;;;11.75;7.95;;;;;;;;;;5052773;28;20053;-61
2021/09/28 02:34:06;;;;;;;10.77;8.82;;;;;;;;;;5052538;28;20029;-61
2021/09/28 02:36:33;;;;;;;9.85;8.23;;;;;;;;;;5052544;28;20032;-60
2021/09/28 02:38:59;;;;;;;11.45;8.95;;;;;;;;;;5056110;28;20480;-60
2021/09/28 02:41:25;;;;;;;13.40;8.95;;;;;;;;;;5056409;28;20071;-60
2021/09/28 02:43:51;;;;;;;13.75;8.80;;;;;;;;;;5056545;28;20021;-60
2021/09/28 02:46:17;;;;;;;11.65;8.82;;;;;;;;;;5056377;28;20025;-60
2021/09/28 02:48:43;;;;;;;12.57;9.23;;;;;;;;;;5056178;28;20057;-60
2021/09/28 02:51:09;;;;;;;12.43;10.15;;;;;;;;;;5056030;28;20017;-61
2021/09/28 02:53:36;;;;;;;12.95;9.55;;;;;;;;;;5056257;28;20029;-60
2021/09/28 02:56:02;;;;;;;18.38;9.88;;;;;;;;;;5055906;28;20036;-58
2021/09/28 02:58:28;;;;;;;11.18;9.30;;;;;;;;;;5056271;28;20374;-58
2021/09/28 03:00:56;;;;;;;13.20;10.18;;;;;;;;;;5056040;28;20485;-59
2021/09/28 03:03:22;;;;;;;15.82;10.57;;;;;;;;;;5056068;28;20025;-59
2021/09/28 03:05:49;;;;;;;13.88;10.52;;;;;;;;;;5055867;28;20017;-59
2021/09/28 03:08:15;;;;;;;12.93;10.48;;;;;;;;;;5056093;28;20056;-57
2021/09/28 03:10:43;;;;;;;12.98;10.48;;;;;;;;;;5055826;28;20020;-60
2021/09/28 03:13:09;;;;;;;13.05;10.32;;;;;;;;;;5055842;28;20117;-60
2021/09/28 03:15:36;;;;;;;14.15;10.98;;;;;;;;;;5055934;28;20040;-60
2021/09/28 03:18:02;;;;;;;16.90;12.05;;;;;;;;;;5055874;28;20025;-60
2021/09/28 03:20:30;;;;;;;14.05;10.88;;;;;;;;;;5055762;28;20048;-60
2021/09/28 03:22:57;;;;;;;19.90;12.35;;;;;;;;;;5056037;28;20404;-61
2021/09/28 03:25:23;;;;;;;16.58;10.73;;;;;;;;;;5055266;28;20106;-59
2021/09/28 03:27:49;;;;;;;17.45;11.63;;;;;;;;;;5055558;28;20025;-59
2021/09/28 03:30:17;;;;;;;14.55;11.25;;;;;;;;;;5055554;28;20370;-60
2021/09/28 03:32:44;;;;;;;14.95;11.73;;;;;;;;;;5055502;28;20052;-61
2021/09/28 03:35:10;;;;;;;16.95;12.27;;;;;;;;;;5055375;28;20033;-61
2021/09/28 03:37:41;;;;;;;17.05;12.30;;;;;;;;;;5055397;28;20534;-60
2021/09/28 03:40:09;;;;;;;16.48;11.77;;;;;;;;;;5055348;28;20051;-60
2021/09/28 03:42:37;;;;;;;18.20;12.45;;;;;;;;;;5055323;28;20374;-60
2021/09/28 03:45:03;;;;;;;15.45;11.75;;;;;;;;;;5055538;28;20021;-60
2021/09/28 03:47:30;;;;;;;15.88;11.85;;;;;;;;;;5055136;28;20027;-60
2021/09/28 03:49:56;;;;;;;17.40;11.63;;;;;;;;;;5055049;28;20036;-60
2021/09/28 03:52:22;;;;;;;15.20;11.48;;;;;;;;;;5055253;28;20024;-60
2021/09/28 03:54:48;;;;;;;18.60;12.05;;;;;;;;;;5055004;28;20436;-58
2021/09/28 03:57:14;;;;;;;14.95;11.57;;;;;;;;;;5054753;28;20061;-60
2021/09/28 03:59:40;;;;;;;20.02;12.25;;;;;;;;;;5054903;28;20393;-61
2021/09/28 04:02:06;;;;;;;16.92;12.52;;;;;;;;;;5054779;28;20489;-61
2021/09/28 04:04:33;;;;;;;16.73;12.00;;;;;;;;;;5054648;28;20060;-60
2021/09/28 04:06:59;;;;;;;15.68;11.73;;;;;;;;;;5054933;28;20529;-60
2021/09/28 04:09:25;;;;;;;16.92;11.60;;;;;;;;;;5054959;28;20029;-60
2021/09/28 04:11:51;;;;;;;19.23;13.65;;;;;;;;;;5054751;28;20063;-60
2021/09/28 04:14:18;;;;;;;17.40;12.88;;;;;;;;;;5054537;28;20029;-59
2021/09/28 04:16:44;;;;;;;17.33;12.98;;;;;;;;;;5054677;28;20117;-59
2021/09/28 04:19:10;;;;;;;20.13;13.50;;;;;;;;;;5054553;28;20380;-63
2021/09/28 04:21:38;;;;;;;18.85;13.20;;;;;;;;;;5054193;28;20032;-56
2021/09/28 04:24:05;;;;;;;21.00;14.18;;;;;;;;;;5054123;28;20049;-56
2021/09/28 04:26:34;;;;;;;19.52;13.82;;;;;;;;;;5054029;28;20036;-58
2021/09/28 04:29:01;;;;;;;26.77;14.65;;;;;;;;;;5054551;28;20037;-61
2021/09/28 04:31:27;;;;;;;18.27;14.00;;;;;;;;;;5054306;28;20060;-58
2021/09/28 04:33:53;;;;;;;18.15;14.13;;;;;;;;;;5054633;28;20033;-57
2021/09/28 04:36:22;;;;;;;19.70;14.05;;;;;;;;;;5054070;28;20500;-60
2021/09/28 04:38:49;;;;;;;20.77;16.10;;;;;;;;;;5054047;28;20035;-61
2021/09/28 04:41:15;;;;;;;21.35;14.40;;;;;;;;;;5054309;28;20386;-58
2021/09/28 04:43:41;;;;;;;23.05;14.88;;;;;;;;;;5054111;28;20053;-60
2021/09/28 04:46:07;;;;;;;25.13;15.93;;;;;;;;;;5054042;28;20450;-59
2021/09/28 04:48:33;;;;;;;21.50;15.43;;;;;;;;;;5054070;28;20102;-60
2021/09/28 04:50:59;;;;;;;22.95;15.27;;;;;;;;;;5053796;28;20021;-60
2021/09/28 04:53:25;;;;;;;23.20;15.20;;;;;;;;;;5053980;28;20029;-60
2021/09/28 04:55:55;;;;;;;33.30;15.93;;;;;;;;;;5053762;28;20040;-61
2021/09/28 04:58:26;;;;;;;21.80;15.75;;;;;;;;;;5054004;28;20097;-60
2021/09/28 05:00:52;;;;;;;21.70;15.98;;;;;;;;;;5053212;28;20056;-60
2021/09/28 05:03:19;;;;;;;21.98;15.00;;;;;;;;;;5053858;28;20101;-61
2021/09/28 05:05:47;;;;;;;25.65;15.85;;;;;;;;;;5054097;28;20067;-61
2021/09/28 05:08:13;;;;;;;25.25;16.92;;;;;;;;;;5053785;28;20059;-61
2021/09/28 05:10:39;;;;;;;22.95;15.30;;;;;;;;;;5054332;28;20101;-62
2021/09/28 05:13:06;;;;;;;24.00;15.80;;;;;;;;;;5054777;28;20029;-61
2021/09/28 05:15:32;;;;;;;25.40;15.48;;;;;;;;;;5054616;28;20112;-61
2021/09/28 05:17:58;;;;;;;22.15;16.35;;;;;;;;;;5053884;28;20025;-62
2021/09/28 05:20:24;;;;;;;24.48;15.68;;;;;;;;;;5053431;28;20440;-63
2021/09/28 05:22:50;;;;;;;22.73;15.00;;;;;;;;;;5053676;28;20022;-63
2021/09/28 05:25:19;;;;;;;23.67;15.75;;;;;;;;;;5053435;28;20047;-63
2021/09/28 05:27:45;;;;;;;21.77;14.80;;;;;;;;;;5051335;28;20055;-60
2021/09/28 05:30:11;;;;;;;27.67;17.98;;;;;;;;;;5052137;28;20021;-62
2021/09/28 05:32:39;;;;;;;25.83;18.67;;;;;;;;;;5053357;28;20021;-61
2021/09/28 05:35:06;;;;;;;29.65;18.50;;;;;;;;;;5053415;28;20033;-61
2021/09/28 05:37:32;;;;;;;26.27;17.00;;;;;;;;;;5053577;28;20045;-61
2021/09/28 05:39:58;;;;;;;35.10;22.35;;;;;;;;;;5053263;28;20035;-62
2021/09/28 05:42:24;;;;;;;32.47;20.92;;;;;;;;;;5053322;28;20029;-62
2021/09/28 05:44:50;;;;;;;74.35;40.42;;;;;;;;;;5053186;28;20047;-63
2021/09/28 05:47:16;;;;;;;33.78;22.42;;;;;;;;;;5053069;28;20025;-62
2021/09/28 05:49:42;;;;;;;30.60;19.67;;;;;;;;;;5052779;28;20057;-58
2021/09/28 05:52:12;;;;;;;31.80;20.77;;;;;;;;;;5053354;28;20029;-61
2021/09/28 05:54:47;;;;;;;32.70;21.80;;;;;;;;;;5053203;28;20037;-62
2021/09/28 05:57:15;;;;;;;39.33;24.73;;;;;;;;;;5052779;28;20028;-62
2021/09/28 05:59:41;;;;;;;30.63;19.35;;;;;;;;;;5051695;28;20509;-62
2021/09/28 06:02:07;;;;;;;30.10;20.42;;;;;;;;;;5053088;28;20029;-62
2021/09/28 06:04:34;;;;;;;50.20;31.13;;;;;;;;;;5053131;28;20033;-62
2021/09/28 06:07:01;;;;;;;32.08;21.45;;;;;;;;;;5052879;28;20025;-63
2021/09/28 06:09:27;;;;;;;45.08;28.50;;;;;;;;;;5053083;28;20086;-62
2021/09/28 06:11:53;;;;;;;51.95;31.25;;;;;;;;;;5054795;28;20056;-61
2021/09/28 06:14:19;;;;;;;44.72;29.13;;;;;;;;;;5056852;28;20082;-57
2021/09/28 06:16:45;;;;;;;64.63;38.58;;;;;;;;;;5056990;28;20025;-54
2021/09/28 06:19:11;;;;;;;54.10;32.22;;;;;;;;;;5056918;28;20017;-61
2021/09/28 06:21:38;;;;;;;35.22;21.77;;;;;;;;;;5056842;28;20017;-59
2021/09/28 06:24:04;;;;;;;70.20;38.63;;;;;;;;;;5057031;28;20486;-62
2021/09/28 06:26:30;;;;;;;64.65;38.03;;;;;;;;;;5056565;28;20033;-61
2021/09/28 06:28:56;;;;;;;50.58;31.23;;;;;;;;;;5056649;28;20063;-61
2021/09/28 06:31:22;;;;;;;59.55;33.38;;;;;;;;;;5056728;28;20393;-62
2021/09/28 06:33:48;;;;;;;55.05;33.88;;;;;;;;;;5056464;28;20025;-61
2021/09/28 06:36:14;;;;;;;46.42;28.33;;;;;;;;;;5056390;28;20124;-61
2021/09/28 06:38:40;;;;;;;32.30;22.00;;;;;;;;;;5056706;28;20032;-60
2021/09/28 06:41:06;;;;;;;38.35;23.13;;;;;;;;;;5056472;28;20127;-61
2021/09/28 06:43:33;;;;;;;32.03;20.52;;;;;;;;;;5056462;28;20489;-60
2021/09/28 06:45:59;;;;;;;30.33;21.02;;;;;;;;;;5056374;28;20056;-60
2021/09/28 06:48:25;;;;;;;35.42;22.23;;;;;;;;;;5056302;28;20032;-59
2021/09/28 06:50:54;;;;;;;33.55;21.00;;;;;;;;;;5056652;28;20021;-61
2021/09/28 06:53:20;;;;;;;40.22;24.25;;;;;;;;;;5056192;28;20025;-57
2021/09/28 06:55:46;;;;;;;37.05;24.13;;;;;;;;;;5056182;28;20043;-59
2021/09/28 06:58:12;;;;;;;40.40;24.55;;;;;;;;;;5056085;28;20362;-60
2021/09/28 07:00:38;;;;;;;38.40;22.40;;;;;;;;;;5056180;28;20079;-59
2021/09/28 07:03:04;;;;;;;43.08;23.33;;;;;;;;;;5056142;28;20473;-60
2021/09/28 07:05:31;;;;;;;46.28;23.35;;;;;;;;;;5055933;28;20481;-59
2021/09/28 07:07:57;;;;;;;34.58;22.38;;;;;;;;;;5056157;28;20021;-58
2021/09/28 07:10:23;;;;;;;46.78;27.45;;;;;;;;;;5055993;28;20029;-56
2021/09/28 07:12:49;;;;;;;39.65;22.50;;;;;;;;;;5055860;28;20036;-59
2021/09/28 07:15:16;;;;;;;35.33;23.92;;;;;;;;;;5055595;28;20037;-60
2021/09/28 07:17:43;;;;;;;40.28;25.05;;;;;;;;;;5055653;28;20101;-53
2021/09/28 07:20:10;;;;;;;57.55;36.10;;;;;;;;;;5054555;28;20504;-60
2021/09/28 07:22:36;;;;;;;42.40;25.70;;;;;;;;;;5054426;28;20040;-61
2021/09/28 07:25:02;;;;;;;57.47;35.78;;;;;;;;;;5054528;28;20037;-59
2021/09/28 07:27:29;;;;;;;86.68;52.83;;;;;;;;;;5054955;28;20033;-58
2021/09/28 07:29:55;;;;;;;42.03;26.95;;;;;;;;;;5054944;28;20021;-58
2021/09/28 07:32:22;;;;;;;49.30;30.35;;;;;;;;;;5052863;28;20017;-57
2021/09/28 07:34:48;;;;;;;47.30;26.58;;;;;;;;;;5054558;28;20465;-57
2021/09/28 07:37:14;;;;;;;170.77;79.80;;;;;;;;;;5055351;28;20053;-57
2021/09/28 07:39:40;;;;;;;122.75;67.13;;;;;;;;;;5054908;28;20511;-48
2021/09/28 07:42:06;;;;;;;413.50;182.48;;;;;;;;;;5054684;28;20033;-46
2021/09/28 07:44:33;;;;;;;262.48;188.95;;;;;;;;;;5054945;28;20488;-53
2021/09/28 07:46:59;;;;;;;63.42;37.88;;;;;;;;;;5054649;28;20029;-49
2021/09/28 07:49:25;;;;;;;31.55;19.67;;;;;;;;;;5054760;28;20635;-61
2021/09/28 07:51:52;;;;;;;45.35;27.10;;;;;;;;;;5055070;28;20108;-53
2021/09/28 07:54:21;;;;;;;158.80;83.93;;;;;;;;;;5054623;28;20040;-63
2021/09/28 07:56:47;;;;;;;816.67;419.17;;;;;;;;;;5054557;28;20017;-54
2021/09/28 07:59:13;;;;;;;155.77;95.78;;;;;;;;;;5054556;28;20036;-58
2021/09/28 08:01:39;;;;;;;100.88;54.88;;;;;;;;;;5054806;28;20028;-56
2021/09/28 08:04:05;;;;;;;138.25;63.05;;;;;;;;;;5054666;28;20075;-49
2021/09/28 08:06:31;;;;;;;41.50;21.45;;;;;;;;;;5054832;28;20048;-57
2021/09/28 08:08:57;;;;;;;28.73;19.17;;;;;;;;;;5054725;28;20036;-54
2021/09/28 08:11:24;;;;;;;29.40;17.13;;;;;;;;;;5054492;28;20025;-58
2021/09/28 08:13:50;;;;;;;30.70;18.70;;;;;;;;;;5054571;28;20025;-56
2021/09/28 08:16:16;;;;;;;29.85;20.17;;;;;;;;;;5054601;28;20040;-56
2021/09/28 08:18:42;;;;;;;42.22;21.88;;;;;;;;;;5054434;28;20048;-55
2021/09/28 08:21:08;;;;;;;32.05;17.88;;;;;;;;;;5054657;28;20021;-55
2021/09/28 08:23:38;;;;;;;27.58;17.50;;;;;;;;;;5054148;28;20037;-54
2021/09/28 08:31:34;;;;;;;81.05;48.08;;;;;;;;;;5054458;28;20114;-55
2021/09/28 08:34:01;;;;;;;130.32;76.13;;;;;;;;;;5054042;28;20383;-52
2021/09/28 08:36:27;;;;;;;52.63;33.17;;;;;;;;;;5054304;28;20033;-56
2021/09/28 08:38:53;;;;;;;58.15;32.65;;;;;;;;;;5054029;28;20017;-56
2021/09/28 08:41:21;;;;;;;65.03;29.13;;;;;;;;;;5054106;28;20067;-48
2021/09/28 08:43:47;;;;;;;99.60;57.58;;;;;;;;;;5053861;28;20036;-54
2021/09/28 08:46:15;;;;;;;70.78;46.15;;;;;;;;;;5053887;28;20021;-53
2021/09/28 08:48:44;;;;;;;70.20;43.53;;;;;;;;;;5053819;28;20110;-53
2021/09/28 08:51:10;;;;;;;75.47;48.53;;;;;;;;;;5054067;28;20033;-52
2021/09/28 08:53:37;;;;;;;123.53;79.72;;;;;;;;;;5053851;28;20025;-52
2021/09/28 08:56:07;;;;;;;111.68;72.32;;;;;;;;;;5053578;28;20044;-51
2021/09/28 08:58:34;;;;;;;66.22;42.17;;;;;;;;;;5053983;28;20025;-53
2021/09/28 09:01:07;;;;;;;124.22;80.20;;;;;;;;;;5053688;28;20025;-51
2021/09/28 09:03:34;;;;;;;69.20;45.50;;;;;;;;;;5053589;28;20457;-52
2021/09/28 09:06:04;;;;;;;59.95;39.63;;;;;;;;;;5053610;28;20033;-50
2021/09/28 09:08:33;;;;;;;87.50;54.65;;;;;;;;;;5053625;28;20044;-53
2021/09/28 09:10:59;;;;;;;80.75;50.47;;;;;;;;;;5053818;28;20411;-53
2021/09/28 09:13:32;;;;;;;75.60;45.45;;;;;;;;;;5051965;28;20468;-52
2021/09/28 09:15:59;;;;;;;92.57;58.10;;;;;;;;;;5053563;28;20037;-54
2021/09/28 09:18:25;;;;;;;71.07;40.33;;;;;;;;;;5053341;28;20372;-52
2021/09/28 09:20:51;;;;;;;82.03;50.22;;;;;;;;;;5053329;28;20499;-53
2021/09/28 09:23:25;;;;;;;59.47;32.42;;;;;;;;;;5053209;28;20109;-52
2021/09/28 09:26:09;;;;;;;81.85;50.28;;;;;;;;;;5053205;28;20048;-53
2021/09/28 09:28:58;;;;;;;88.20;47.13;;;;;;;;;;5053275;28;20087;-51
2021/09/28 09:31:29;;;;;;;70.22;41.53;;;;;;;;;;5053461;28;20037;-52
2021/09/28 09:34:05;;;;;;;92.75;54.90;;;;;;;;;;5053230;28;20432;-52
2021/09/28 09:36:31;;;;;;;78.18;46.72;;;;;;;;;;5053156;28;20033;-55
2021/09/28 09:38:57;;;;;;;41.45;26.42;;;;;;;;;;5053152;28;20052;-55
2021/09/28 09:41:28;;;;;;;39.65;26.95;;;;;;;;;;5053022;28;20021;-53
2021/09/28 09:44:05;;;;;;;43.17;24.80;;;;;;;;;;5052609;28;20071;-52
2021/09/28 09:46:43;;;;;;;45.25;24.65;;;;;;;;;;5055742;28;20333;-55
2021/09/28 09:49:10;;;;;;;41.40;24.08;;;;;;;;;;5058104;28;20149;-54
2021/09/28 09:51:46;;;;;;;32.33;18.75;;;;;;;;;;5060050;28;20508;-55
2021/09/28 09:54:12;;;;;;;29.95;19.38;;;;;;;;;;5059891;28;20033;-52
2021/09/28 09:56:48;;;;;;;32.80;19.38;;;;;;;;;;5058967;28;20025;-52
2021/09/28 09:59:16;;;;;;;30.20;18.70;;;;;;;;;;5059202;28;20354;-51
2021/09/28 10:01:42;;;;;;;49.45;33.15;;;;;;;;;;5059018;28;20465;-53
2021/09/28 10:04:12;;;;;;;50.17;30.40;;;;;;;;;;5059247;28;20055;-51
2021/09/28 10:06:41;;;;;;;54.55;33.38;;;;;;;;;;5056633;28;20071;-52
2021/09/28 10:09:21;;;;;;;48.63;32.22;;;;;;;;;;5059300;28;20374;-53
2021/09/28 10:11:51;;;;;;;48.20;32.53;;;;;;;;;;5057731;28;20024;-54
2021/09/28 10:14:35;;;;;;;39.42;24.17;;;;;;;;;;5056276;28;20074;-52
2021/09/28 10:17:03;;;;;;;50.70;31.00;;;;;;;;;;5056780;28;20031;-54
2021/09/28 10:19:29;;;;;;;32.42;22.55;;;;;;;;;;5058907;28;20492;-52
2021/09/28 10:21:59;;;;;;;76.63;48.50;;;;;;;;;;5059072;28;20108;-54
2021/09/28 10:24:26;;;;;;;69.68;44.85;;;;;;;;;;5058779;28;20508;-53
2021/09/28 10:26:59;;;;;;;63.17;45.15;;;;;;;;;;5058835;28;20043;-54
2021/09/28 10:29:41;;;;;;;36.05;24.88;;;;;;;;;;5058642;28;20146;-54
2021/09/28 10:32:25;;;;;;;56.53;37.60;;;;;;;;;;5057073;28;20032;-53
2021/09/28 10:35:07;;;;;;;58.20;38.47;;;;;;;;;;5056817;28;20032;-53
2021/09/28 10:37:52;;;;;;;78.78;46.55;;;;;;;;;;5056739;28;20133;-54
2021/09/28 10:40:18;;;;;;;96.47;64.05;;;;;;;;;;5057327;28;20488;-52
2021/09/28 10:42:50;;;;;;;43.67;31.42;;;;;;;;;;5058259;28;20492;-52
2021/09/28 10:45:22;;;;;;;70.90;42.22;;;;;;;;;;5059263;28;20499;-53
2021/09/28 10:47:50;;;;;;;28.92;20.65;;;;;;;;;;5057993;28;20064;-53
2021/09/28 11:33:29;;;;;;;22.42;16.27;;;;;;;;;;5353497;22;20008;31
2021/09/28 11:35:59;;;;;;;48.88;26.13;;;;;;;;;;4992632;28;20042;-43
2021/09/28 11:38:27;;;;;;;33.95;20.67;;;;;;;;;;4995122;28;20033;-42
2021/09/28 11:41:00;;;;;;;39.78;22.95;;;;;;;;;;4995251;28;20077;-45
2021/09/28 11:43:30;;;;;;;26.95;18.65;;;;;;;;;;4994990;28;20405;-64
2021/09/28 11:46:02;;;;;;;31.47;17.83;;;;;;;;;;4994878;28;20026;-59
2021/09/28 11:48:31;;;;;;;32.47;20.00;;;;;;;;;;4995318;28;20050;-46
2021/09/28 11:51:08;;;;;;;38.03;20.80;;;;;;;;;;4994624;28;20046;-65
2021/09/28 11:53:49;;;;;;;26.58;17.10;;;;;;;;;;4994868;28;20074;-65
2021/09/28 11:56:18;;;;;;;28.85;17.83;;;;;;;;;;4986689;28;20034;-49
2021/09/28 11:58:44;;;;;;;22.73;16.65;;;;;;;;;;4994814;28;20014;-62
2021/09/28 12:01:11;;;;;;;25.30;17.33;;;;;;;;;;4994506;28;20026;-53
2021/09/28 12:04:01;;;;;;;31.73;20.23;;;;;;;;;;4994493;28;20509;-62
2021/09/28 12:07:11;;;;;;;23.02;16.77;;;;;;;;;;4994711;28;20041;-50
2021/09/28 12:09:16;;;;;;;24.15;18.38;;;;;;;;;;4983391;28;20178;-45
2021/09/28 12:12:03;;;;;;;28.88;18.05;;;;;;;;;;4994274;28;20033;-45
2021/09/28 12:14:39;;;;;;;23.00;16.65;;;;;;;;;;4994518;28;20459;-42
2021/09/28 12:17:12;;;;;;;29.60;17.08;;;;;;;;;;4994117;28;20149;-52
2021/09/28 12:19:39;;;;;;;27.63;15.98;;;;;;;;;;4994145;28;20031;-42
2021/09/28 12:22:06;;;;;;;19.33;15.63;;;;;;;;;;4994328;28;20441;-48
2021/09/28 12:24:42;;;;;;;26.02;14.98;;;;;;;;;;4994046;28;20019;-42
2021/09/28 12:27:08;;;;;;;24.92;14.48;;;;;;;;;;4994240;28;20022;-44
2021/09/28 12:29:44;;;;;;;19.63;14.23;;;;;;;;;;4993999;28;20089;-48
2021/09/28 12:32:21;;;;;;;22.80;14.27;;;;;;;;;;4978091;28;20418;-41
2021/09/28 12:34:48;;;;;;;24.52;14.27;;;;;;;;;;4967678;28;20165;-40
2021/09/28 12:37:17;;;;;;;19.10;14.15;;;;;;;;;;4968529;28;20461;-40
2021/09/28 12:39:58;;;;;;;23.55;13.85;;;;;;;;;;4968381;28;20015;-40
2021/09/28 12:42:24;;;;;;;23.27;14.27;;;;;;;;;;4968522;28;20029;-44
2021/09/28 12:44:55;;;;;;;19.27;13.85;;;;;;;;;;4968296;28;20022;-43
2021/09/28 12:47:29;;;;;;;20.42;13.80;;;;;;;;;;4961355;28;20027;-54
2021/09/28 12:49:56;;;;;;;20.75;13.43;;;;;;;;;;4973157;28;20029;-64
2021/09/28 12:52:22;;;;;;;19.58;14.93;;;;;;;;;;4970541;28;20049;-40
2021/09/28 12:54:51;;;;;;;25.77;16.65;;;;;;;;;;4968879;28;20029;-40
2021/09/28 12:57:17;;;;;;;60.65;41.20;;;;;;;;;;4968935;28;20030;-47
2021/09/28 12:59:44;;;;;;;91.82;61.17;;;;;;;;;;4969567;28;20218;-42
2021/09/28 13:02:10;;;;;;;63.30;43.42;;;;;;;;;;4968796;28;20136;-48
2021/09/28 13:04:37;;;;;;;97.72;67.07;;;;;;;;;;4969734;28;20100;-56
2021/09/28 13:07:08;;;;;;;168.57;119.18;;;;;;;;;;4968857;28;20029;-50
2021/09/28 13:09:34;;;;;;;45.85;32.35;;;;;;;;;;4968656;28;20022;-47
2021/09/28 13:12:01;;;;;;;47.22;35.00;;;;;;;;;;4968651;28;20422;-59
2021/09/28 13:14:28;;;;;;;40.78;28.27;;;;;;;;;;4968752;28;20112;-45
2021/09/28 13:16:56;;;;;;;35.92;26.40;;;;;;;;;;4960427;28;20045;-51
2021/09/28 13:19:23;;;;;;;49.95;35.75;;;;;;;;;;4967326;28;20026;-51
2021/09/28 13:21:49;;;;;;;55.88;40.05;;;;;;;;;;4966963;28;20144;-49
2021/09/28 13:24:15;;;;;;;36.13;26.25;;;;;;;;;;4967495;28;20595;-46
2021/09/28 13:26:41;;;;;;;104.72;74.18;;;;;;;;;;4967498;28;20081;-45
2021/09/28 13:29:07;;;;;;;38.45;27.35;;;;;;;;;;4991187;28;20022;-64
2021/09/28 13:31:33;;;;;;;36.63;26.42;;;;;;;;;;4994113;28;20026;-45
2021/09/28 13:33:59;;;;;;;41.00;30.50;;;;;;;;;;4993818;28;20104;-50
2021/09/28 13:36:28;;;;;;;25.58;16.33;;;;;;;;;;4979862;28;20050;-56
2021/09/28 13:38:54;;;;;;;21.45;15.63;;;;;;;;;;4974619;28;20034;-66
2021/09/28 13:41:20;;;;;;;21.02;16.95;;;;;;;;;;4974622;28;20105;-66
2021/09/28 13:43:46;;;;;;;29.02;22.70;;;;;;;;;;4974655;28;20045;-49
2021/09/28 13:46:12;;;;;;;24.45;18.30;;;;;;;;;;4974533;28;20026;-58
2021/09/28 13:48:38;;;;;;;26.48;19.05;;;;;;;;;;4974447;28;20023;-51
2021/09/28 13:51:04;;;;;;;26.55;17.85;;;;;;;;;;4974446;28;20483;-55
2021/09/28 13:53:30;;;;;;;23.65;16.75;;;;;;;;;;4974764;28;20109;-46
2021/09/28 13:55:57;;;;;;;18.95;14.95;;;;;;;;;;4974634;28;20031;-65
2021/09/28 13:58:23;;;;;;;24.35;16.27;;;;;;;;;;4977038;28;20033;-60
2021/09/28 14:00:49;;;;;;;19.88;15.80;;;;;;;;;;4979647;28;20150;-58
2021/09/28 14:03:15;;;;;;;19.95;15.50;;;;;;;;;;4977439;28;20031;-50
2021/09/28 14:05:41;;;;;;;16.83;13.10;;;;;;;;;;4978691;28;20624;-63
2021/09/28 14:08:07;;;;;;;28.50;16.15;;;;;;;;;;4977090;28;20031;-42
2021/09/28 14:10:33;;;;;;;22.50;14.45;;;;;;;;;;4976906;28;20030;-57
2021/09/28 14:13:00;;;;;;;17.77;12.77;;;;;;;;;;4977004;28;20023;-55
2021/09/28 14:15:26;;;;;;;18.30;12.43;;;;;;;;;;4978874;28;20034;-42
2021/09/28 14:17:52;;;;;;;18.77;13.02;;;;;;;;;;4976506;28;20094;-59
2021/09/28 14:20:18;;;;;;;21.10;14.10;;;;;;;;;;4966492;28;20026;-64
2021/09/28 14:22:44;;;;;;;18.23;12.93;;;;;;;;;;4967081;28;20026;-61
2021/09/28 14:25:12;;;;;;;17.73;13.20;;;;;;;;;;4967462;28;20094;-66
2021/09/28 14:27:38;;;;;;;17.38;12.13;;;;;;;;;;4967298;28;20513;-62
2021/09/28 14:30:06;;;;;;;17.58;12.25;;;;;;;;;;4967232;28;20027;-65
2021/09/28 14:32:32;;;;;;;17.77;14.07;;;;;;;;;;4967977;28;20583;-65
2021/09/28 14:34:58;;;;;;;19.40;13.55;;;;;;;;;;4974898;28;20078;-66
2021/09/28 14:37:27;;;;;;;20.33;13.52;;;;;;;;;;4997235;28;20026;-65
2021/09/28 14:39:56;;;;;;;16.52;11.95;;;;;;;;;;4997197;28;20030;-61
2021/09/28 14:42:22;;;;;;;24.77;14.25;;;;;;;;;;4997186;28;20394;-57
2021/09/28 14:44:51;;;;;;;22.10;13.50;;;;;;;;;;4996963;28;20029;-61
2021/09/28 14:47:17;;;;;;;22.77;15.85;;;;;;;;;;4996892;28;20390;-42
2021/09/28 14:49:43;;;;;;;20.95;14.65;;;;;;;;;;4996963;28;20023;-57
2021/09/28 14:52:09;;;;;;;18.40;13.80;;;;;;;;;;4996903;28;20023;-67
2021/09/28 14:54:36;;;;;;;20.27;13.82;;;;;;;;;;4996961;28;20061;-66
2021/09/28 14:57:03;;;;;;;16.85;13.38;;;;;;;;;;4996890;28;20030;-66
2021/09/28 14:59:29;;;;;;;18.55;12.68;;;;;;;;;;4988742;28;20026;-53
2021/09/28 15:01:58;;;;;;;19.42;13.98;;;;;;;;;;4970579;28;20034;-52
2021/09/28 15:04:24;;;;;;;18.30;12.63;;;;;;;;;;4969049;28;20045;-62
2021/09/28 15:06:50;;;;;;;15.68;13.18;;;;;;;;;;4968677;28;20022;-57
2021/09/28 15:09:16;;;;;;;22.17;13.82;;;;;;;;;;4965037;28;20050;-53